Moab, UT (84532)

7:33 PM MST on January 22, 2017 (GMT -0700)
Central Moab | | Change Station

Elev 4055 ft 38.57 °N, 109.55 °W | Updated 22 seconds ago

Overcast
Overcast
38.7 °F
Feels Like 36 °F
N
3.7
Wind Variable Wind from NNW

Today
High -- | Low -- °F
--% Chance of Precip.
Yesterday
High -- | Low -- °F
Precip. -- in
Pressure 30.01 in
Visibility 6.0 miles
Clouds Mostly Cloudy 4400 ft
Mostly Cloudy 5500 ft
Mostly Cloudy 7000 ft
Windchill 36 °F
Dew Point 30 °F
Humidity 70%
Rainfall 0.03 in
Snow Depth Not available.
7:30 AM 5:29 PM
Waning Crescent, 22% visible
METAR KCNY 230153Z AUTO 13011KT 6SM -SN BR BKN044 BKN055 BKN070 01/M01 A2996 RMK AO2 SNB22 SLP163 P0000 T00061006
Pressure 30.01 in
Visibility 6.0 miles
Clouds Mostly Cloudy 4400 ft
Mostly Cloudy 5500 ft
Mostly Cloudy 7000 ft
Windchill 36 °F
Dew Point 30 °F
Humidity 70%
Rainfall 0.03 in
Snow Depth Not available.
7:30 AM 5:29 PM
Waning Crescent, 22% visible
METAR KCNY 230153Z AUTO 13011KT 6SM -SN BR BKN044 BKN055 BKN070 01/M01 A2996 RMK AO2 SNB22 SLP163 P0000 T00061006

Get Your Daily Forecast Email!

Thanks for signing up!

Be on the lookout for a verification email in your inbox.

You'll start receiving the daily forecast at 8 AM.

×

10-Day Weather Forecast

Almanac

Astronomy

Jan. 22, 2017 Rise Set
Actual Time
Civil Twilight
Nautical Twilight
Astronomical Twilight
Moon
Length of Visible Light
Length of Day
Tomorrow will be .
, % of the Moon is Illuminated

Today's Extremes

State Highs State Lows

Community

WunderPhotos

Upload Photos

1,962,540 photos uploaded!

WunderBlog® & News

Nearby

Air Quality

  Air Quality AQ Index Pollutant
Not available.

Snow Depth

Station Depth Elevation

Earthquake Activity

City Distance Mag. Time & Date
Minimum magnitude displayed is 2.5.

Coastal Water Temperatures

Place Temperature

Stations

Nearby Weather Stations

Station Location Temp. Windchill Dew Point Humidity Wind Precip. Elev Updated Type
                   

Watches & Warnings

There are currently no watches in effect.